Time;durP1;ratioP1;P1;durP2;ratioP2;P2;SDS_P1;SDS_P2;PMS_P1;PMS_P2;Temp;Humidity;BMP_temperature;BMP_pressure;BME280_temperature;BME280_humidity;BME280_pressure;Samples;Min_cycle;Max_cycle;Signal;HPM_P1;HPM_P2
2020/12/21 01:18:10;;;;;;;;;;;5.50;99.90;;;;;;5099015;28;20384;-92
2020/12/21 01:20:38;;;;;;;;;;;5.50;99.90;;;;;;5081463;28;19912;-93
2020/12/21 06:14:52;;;;;;;;;;;4.20;99.90;;;;;;5127318;27;19942;-93
2020/12/21 06:17:24;;;;;;;;;;;4.20;99.90;;;;;;5092275;28;20023;-92
2020/12/21 06:45:16;;;;;;;;;;;4.00;99.90;;;;;;5076375;28;19908;-90
2020/12/21 06:47:45;;;;;;;;;;;4.00;99.90;;;;;;5059559;28;19908;-90
2020/12/21 06:53:05;;;;;;;;;;;3.90;99.90;;;;;;5024827;28;20284;-89
2020/12/21 06:55:46;;;;;;;;;;;3.90;99.90;;;;;;5068896;28;19912;-89
2020/12/21 06:58:17;;;;;;;;;;;3.90;99.90;;;;;;5058708;28;20357;-89
2020/12/21 07:00:55;;;;;;;;;;;3.80;99.90;;;;;;5054849;28;19912;-89
2020/12/21 07:03:36;;;;;;;;;;;3.90;99.90;;;;;;5058357;28;19909;-89
2020/12/21 07:06:09;;;;;;;;;;;3.80;99.90;;;;;;5041101;28;20342;-89
2020/12/21 07:08:43;;;;;;;;;;;3.80;99.90;;;;;;5058529;28;20031;-90
2020/12/21 07:11:23;;;;;;;;;;;3.80;99.90;;;;;;5052852;28;19908;-90
2020/12/21 07:14:09;;;;;;;;;;;3.80;99.90;;;;;;5084814;28;19912;-88
2020/12/21 07:16:42;;;;;;;;;;;3.80;99.90;;;;;;5073827;28;20413;-89
2020/12/21 07:19:36;;;;;;;;;;;3.70;99.90;;;;;;5079419;28;20050;-90
2020/12/21 07:22:22;;;;;;;;;;;3.80;99.90;;;;;;5072376;28;19908;-90
2020/12/21 12:04:04;;;;;;;;;;;7.60;99.90;;;;;;5133329;27;19976;-92
2020/12/21 12:06:53;;;;;;;;;;;7.60;99.90;;;;;;5132956;27;19998;-90
2020/12/21 12:09:26;;;;;;;;;;;7.60;99.90;;;;;;5134709;27;19919;-92
2020/12/21 12:12:05;;;;;;;;;;;7.60;99.90;;;;;;5139610;27;19914;-91
2020/12/21 12:14:55;;;;;;;;;;;7.60;99.90;;;;;;5155635;27;19912;-92
2020/12/21 12:17:41;;;;;;;;;;;7.60;99.90;;;;;;5155683;27;19915;-92
2020/12/21 12:23:39;;;;;;;;;;;7.60;99.90;;;;;;5169766;27;19907;-91
2020/12/21 12:26:05;;;;;;;;;;;7.70;99.90;;;;;;5129192;28;19919;-90
2020/12/21 12:35:05;;;;;;;;;;;7.70;99.90;;;;;;5113890;28;20308;-92
2020/12/21 12:37:44;;;;;;;;;;;;;;;;;;;;;
2020/12/21 12:46:39;;;;;;;;;;;7.60;99.90;;;;;;5114640;28;20016;-90
2020/12/21 12:49:11;;;;;;;;;;;7.60;99.90;;;;;;5081223;28;19918;-91
2020/12/21 12:54:52;;;;;;;;;;;7.60;99.90;;;;;;5114083;28;19915;-90
2020/12/21 12:57:21;;;;;;;;;;;7.60;99.90;;;;;;5118938;27;20354;-92
2020/12/21 13:09:31;;;;;;;;;;;7.60;99.90;;;;;;5140259;27;19965;-92
2020/12/21 13:12:06;;;;;;;;;;;7.70;99.90;;;;;;5122262;27;19911;-92
2020/12/21 13:14:32;;;;;;;;;;;7.80;99.90;;;;;;5117406;27;19938;-92
2020/12/21 13:17:01;;;;;;;;;;;7.80;99.90;;;;;;5119075;27;19918;-91
2020/12/21 13:41:25;;;;;;;;;;;7.90;99.90;;;;;;5140292;27;19914;-92
2020/12/21 13:44:15;;;;;;;;;;;7.90;99.90;;;;;;5139209;27;19941;-90
2020/12/21 13:53:05;;;;;;;;;;;7.90;99.90;;;;;;5139386;27;19942;-91
2020/12/21 13:55:39;;;;;;;;;;;7.80;99.90;;;;;;5122816;27;19907;-91
2020/12/21 13:58:06;;;;;;;;;;;7.90;99.90;;;;;;5123114;27;19907;-92
2020/12/21 14:23:56;;;;;;;;;;;7.80;99.90;;;;;;5139233;27;20348;-92
2020/12/21 14:27:00;;;;;;;;;;;7.80;99.90;;;;;;5137743;27;19916;-92
2020/12/21 14:29:30;;;;;;;;;;;7.80;99.90;;;;;;5119813;27;19908;-92
2020/12/21 14:32:02;;;;;;;;;;;7.80;99.90;;;;;;5117134;27;20006;-91
2020/12/21 14:34:34;;;;;;;;;;;7.80;99.90;;;;;;5115852;27;19914;-91
2020/12/21 14:37:52;;;;;;;;;;;7.80;99.90;;;;;;5076072;28;19912;-91
2020/12/21 14:40:21;;;;;;;;;;;7.80;99.90;;;;;;5079591;28;19917;-93
2020/12/21 14:42:58;;;;;;;;;;;7.80;99.90;;;;;;5058994;28;19908;-93
2020/12/21 14:45:24;;;;;;;;;;;7.80;99.90;;;;;;5057716;28;20384;-90
2020/12/21 14:47:59;;;;;;;;;;;7.80;99.90;;;;;;5058782;28;19909;-92
2020/12/21 14:50:33;;;;;;;;;;;7.80;99.90;;;;;;5058813;28;20007;-90
2020/12/21 14:53:33;;;;;;;;;;;7.80;99.90;;;;;;5071932;28;20351;-91
2020/12/21 14:56:08;;;;;;;;;;;7.80;99.90;;;;;;5057360;28;19912;-91
2020/12/21 14:58:37;;;;;;;;;;;7.80;99.90;;;;;;5072464;28;20296;-90
2020/12/21 15:01:09;;;;;;;;;;;7.80;99.90;;;;;;5067340;27;19911;-90
2020/12/21 15:03:41;;;;;;;;;;;7.80;99.90;;;;;;5103263;27;20364;-92
2020/12/21 15:06:16;;;;;;;;;;;7.80;99.90;;;;;;5110662;28;20275;-90
2020/12/21 15:08:47;;;;;;;;;;;7.80;99.90;;;;;;5096278;28;19951;-89
2020/12/21 15:11:16;;;;;;;;;;;7.80;99.90;;;;;;5099110;28;19938;-91
2020/12/21 15:13:45;;;;;;;;;;;7.80;99.90;;;;;;5098827;28;20010;-90
2020/12/21 15:16:20;;;;;;;;;;;7.80;99.90;;;;;;5098189;28;19947;-88
2020/12/21 15:18:54;;;;;;;;;;;7.80;99.90;;;;;;5098836;28;19961;-90
2020/12/21 15:21:20;;;;;;;;;;;7.80;99.90;;;;;;5099734;27;20419;-90
2020/12/21 15:24:09;;;;;;;;;;;7.80;99.90;;;;;;5121143;27;19982;-89
2020/12/21 15:26:42;;;;;;;;;;;7.80;99.90;;;;;;5114510;28;19960;-90
2020/12/21 15:29:14;;;;;;;;;;;7.80;99.90;;;;;;5112876;28;19947;-91
2020/12/21 15:31:55;;;;;;;;;;;7.80;99.90;;;;;;5116585;28;19915;-91
2020/12/21 15:34:40;;;;;;;;;;;7.80;99.90;;;;;;5116356;28;19908;-89
2020/12/21 15:37:12;;;;;;;;;;;7.80;99.90;;;;;;5109539;28;19908;-88
2020/12/21 15:39:46;;;;;;;;;;;7.80;99.90;;;;;;5115353;28;19916;-90
2020/12/21 15:42:24;;;;;;;;;;;7.80;99.90;;;;;;5118496;27;20395;-88
2020/12/21 15:44:52;;;;;;;;;;;7.80;99.90;;;;;;5113207;28;19920;-89
2020/12/21 15:47:45;;;;;;;;;;;7.80;99.90;;;;;;5115149;28;20002;-88
2020/12/21 15:50:17;;;;;;;;;;;7.80;99.90;;;;;;5062656;28;20384;-89
2020/12/21 15:52:59;;;;;;;;;;;7.80;99.90;;;;;;5115863;28;19953;-89
2020/12/21 15:55:32;;;;;;;;;;;7.80;99.90;;;;;;5119224;28;20349;-90
2020/12/21 15:58:04;;;;;;;;;;;7.80;99.90;;;;;;5115079;28;19908;-89
2020/12/21 16:00:39;;;;;;;;;;;7.80;99.90;;;;;;5098498;28;20376;-89
2020/12/21 16:03:05;;;;;;;;;;;7.80;99.90;;;;;;5114543;28;19908;-89
2020/12/21 16:05:33;;;;;;;;;;;7.80;99.90;;;;;;5114764;28;19966;-89
2020/12/21 16:08:06;;;;;;;;;;;7.80;99.90;;;;;;5110942;28;20010;-89
2020/12/21 16:10:36;;;;;;;;;;;7.80;99.90;;;;;;5111709;28;19961;-88
2020/12/21 16:13:04;;;;;;;;;;;7.80;99.90;;;;;;5114230;28;20052;-89
2020/12/21 16:15:39;;;;;;;;;;;7.80;99.90;;;;;;5111557;28;19907;-90
2020/12/21 16:18:22;;;;;;;;;;;7.80;99.90;;;;;;5115661;28;19998;-89
2020/12/21 16:20:48;;;;;;;;;;;7.80;99.90;;;;;;5111359;28;19923;-91
2020/12/21 16:23:18;;;;;;;;;;;7.80;99.90;;;;;;5114226;28;19928;-88
2020/12/21 16:25:44;;;;;;;;;;;7.80;99.90;;;;;;5115202;28;19908;-91
2020/12/21 16:28:21;;;;;;;;;;;7.80;99.90;;;;;;5115621;28;19911;-91
2020/12/21 16:37:18;;;;;;;;;;;7.80;99.90;;;;;;5115506;28;19918;-90
2020/12/21 16:39:47;;;;;;;;;;;7.90;99.90;;;;;;5106924;28;19912;-89
2020/12/21 16:42:16;;;;;;;;;;;7.90;99.90;;;;;;5114436;28;19907;-90
2020/12/21 16:44:42;;;;;;;;;;;7.90;99.90;;;;;;5114330;28;19933;-89
2020/12/21 16:47:22;;;;;;;;;;;7.80;99.90;;;;;;5113788;28;19908;-90
2020/12/21 16:49:53;;;;;;;;;;;7.90;99.90;;;;;;5111234;28;19912;-90
2020/12/21 16:52:25;;;;;;;;;;;7.90;99.90;;;;;;5113550;28;19907;-90
2020/12/21 16:54:52;;;;;;;;;;;7.90;99.90;;;;;;5115109;28;19912;-89
2020/12/21 16:57:21;;;;;;;;;;;7.90;99.90;;;;;;5116898;28;19923;-90
2020/12/21 16:59:53;;;;;;;;;;;7.90;99.90;;;;;;5134286;28;19922;-90
2020/12/21 17:02:23;;;;;;;;;;;7.90;99.90;;;;;;5130290;28;20344;-90
2020/12/21 17:04:54;;;;;;;;;;;8.00;99.90;;;;;;5119857;28;19958;-90
2020/12/21 17:07:27;;;;;;;;;;;8.00;99.90;;;;;;5129757;28;20002;-90
2020/12/21 17:10:06;;;;;;;;;;;8.00;99.90;;;;;;5134622;28;19999;-91
2020/12/21 17:12:35;;;;;;;;;;;8.00;99.90;;;;;;5127656;28;19961;-90
2020/12/21 17:15:00;;;;;;;;;;;7.90;99.90;;;;;;5107727;28;19922;-90
2020/12/21 17:17:29;;;;;;;;;;;8.00;99.90;;;;;;5118627;28;20336;-90
2020/12/21 17:19:55;;;;;;;;;;;8.00;99.90;;;;;;5134605;28;20013;-89
2020/12/21 17:22:30;;;;;;;;;;;8.00;99.90;;;;;;5134001;28;19953;-89
2020/12/21 17:25:05;;;;;;;;;;;8.00;99.90;;;;;;5133984;28;19951;-90
2020/12/21 17:27:39;;;;;;;;;;;8.00;99.90;;;;;;5134940;28;19966;-90
2020/12/21 17:30:07;;;;;;;;;;;8.00;99.90;;;;;;5117360;28;19915;-89
2020/12/21 17:32:59;;;;;;;;;;;8.00;99.90;;;;;;5114211;28;19964;-89
2020/12/21 17:35:34;;;;;;;;;;;8.00;99.90;;;;;;5113440;28;19907;-90
2020/12/21 17:38:03;;;;;;;;;;;8.00;99.90;;;;;;5116910;28;20006;-89
2020/12/21 17:40:51;;;;;;;;;;;8.00;99.90;;;;;;5129744;28;19915;-90
2020/12/21 17:43:45;;;;;;;;;;;8.00;99.90;;;;;;5111563;28;19908;-89
2020/12/21 17:46:16;;;;;;;;;;;8.10;99.90;;;;;;5134631;28;20352;-90
2020/12/21 17:48:50;;;;;;;;;;;8.00;99.90;;;;;;5135880;27;19908;-90
2020/12/21 17:51:32;;;;;;;;;;;8.10;99.90;;;;;;5120656;27;19919;-90
2020/12/21 17:54:21;;;;;;;;;;;8.10;99.90;;;;;;5138652;27;19918;-91
2020/12/21 17:57:02;;;;;;;;;;;8.10;99.90;;;;;;5134925;27;20004;-89
2020/12/21 17:59:41;;;;;;;;;;;8.10;99.90;;;;;;5137601;27;19911;-90
2020/12/21 18:02:34;;;;;;;;;;;8.20;99.90;;;;;;5075503;28;19917;-91
2020/12/21 18:05:04;;;;;;;;;;;8.10;99.90;;;;;;5019688;28;20366;-91
2020/12/21 18:08:09;;;;;;;;;;;8.10;99.90;;;;;;5032231;28;20386;-92
2020/12/21 18:10:39;;;;;;;;;;;8.20;99.90;;;;;;5034185;28;19909;-89
2020/12/21 18:13:09;;;;;;;;;;;8.20;99.90;;;;;;5019437;28;19916;-90
2020/12/21 18:15:40;;;;;;;;;;;8.30;99.90;;;;;;5035447;28;19924;-91
2020/12/21 18:18:27;;;;;;;;;;;;;;;;;;;;;
2020/12/21 18:21:00;;;;;;;;;;;8.40;99.90;;;;;;5043237;28;20297;-88
2020/12/21 18:23:31;;;;;;;;;;;8.40;99.90;;;;;;5038800;28;19987;-89
2020/12/21 18:26:03;;;;;;;;;;;8.40;99.90;;;;;;5043778;28;20005;-91
2020/12/21 18:28:35;;;;;;;;;;;8.40;99.90;;;;;;5083349;27;19916;-91
2020/12/21 18:31:05;;;;;;;;;;;8.50;99.90;;;;;;5082774;28;20349;-90
2020/12/21 18:33:37;;;;;;;;;;;8.50;99.90;;;;;;5094824;28;20007;-90
2020/12/21 18:36:11;;;;;;;;;;;8.50;99.90;;;;;;5098982;28;19908;-90
2020/12/21 18:38:57;;;;;;;;;;;8.50;99.90;;;;;;5098819;28;19912;-90
2020/12/21 18:41:24;;;;;;;;;;;8.50;99.90;;;;;;5096209;27;20038;-89
2020/12/21 18:43:56;;;;;;;;;;;8.50;99.90;;;;;;5132644;27;19936;-90
2020/12/21 18:47:03;;;;;;;;;;;8.60;99.90;;;;;;5137348;27;19911;-91
2020/12/21 18:49:39;;;;;;;;;;;8.60;99.90;;;;;;5120050;27;19919;-90
2020/12/21 18:52:41;;;;;;;;;;;8.60;99.90;;;;;;5137731;27;20920;-90
2020/12/21 18:55:23;;;;;;;;;;;;;;;;;;;;;
2020/12/21 18:58:01;;;;;;;;;;;8.70;99.90;;;;;;5134370;27;20014;-91
2020/12/21 19:00:30;;;;;;;;;;;8.70;99.90;;;;;;5119952;27;19931;-90
2020/12/21 19:03:21;;;;;;;;;;;8.70;99.90;;;;;;5137467;27;19911;-91
2020/12/21 19:06:05;;;;;;;;;;;8.70;99.90;;;;;;5138309;27;19907;-92
2020/12/21 19:08:37;;;;;;;;;;;8.80;99.90;;;;;;5125348;27;19912;-90
2020/12/21 19:11:13;;;;;;;;;;;8.80;99.90;;;;;;5137331;27;19937;-91
2020/12/21 19:13:44;;;;;;;;;;;8.80;99.90;;;;;;5136914;27;19911;-90
2020/12/21 19:16:13;;;;;;;;;;;8.90;99.90;;;;;;5131656;27;19907;-91
2020/12/21 19:21:47;;;;;;;;;;;8.90;99.90;;;;;;5094295;28;19996;-92
2020/12/21 19:24:15;;;;;;;;;;;9.00;99.90;;;;;;5079484;28;19947;-91
2020/12/21 19:27:05;;;;;;;;;;;9.00;99.90;;;;;;5055384;28;19998;-91
2020/12/21 19:29:41;;;;;;;;;;;9.10;99.90;;;;;;5038169;28;20297;-91
2020/12/21 19:32:47;;;;;;;;;;;9.00;99.90;;;;;;5051792;28;19979;-90
2020/12/21 19:35:16;;;;;;;;;;;9.10;99.90;;;;;;5037744;28;19999;-91
2020/12/21 19:43:48;;;;;;;;;;;9.20;99.90;;;;;;4956956;28;19910;-90
2020/12/21 19:46:21;;;;;;;;;;;9.20;99.90;;;;;;4952933;29;20375;-91
2020/12/21 19:49:06;;;;;;;;;;;9.20;99.90;;;;;;4926869;28;19918;-90
2020/12/21 19:51:44;;;;;;;;;;;9.20;99.90;;;;;;5053165;27;19912;-91
2020/12/21 19:54:18;;;;;;;;;;;9.20;99.90;;;;;;5137149;27;19908;-90
2020/12/21 19:57:04;;;;;;;;;;;9.30;99.90;;;;;;5094058;28;20315;-90
2020/12/21 20:02:41;;;;;;;;;;;9.30;99.90;;;;;;5101035;28;20327;-91
2020/12/21 20:05:16;;;;;;;;;;;9.30;99.90;;;;;;5075554;28;19912;-91
2020/12/21 20:08:01;;;;;;;;;;;9.30;99.90;;;;;;5078794;28;20364;-89
2020/12/21 20:10:51;;;;;;;;;;;9.40;99.90;;;;;;5087375;28;20364;-89
2020/12/21 20:13:23;;;;;;;;;;;9.40;99.90;;;;;;5100218;28;19908;-90
2020/12/21 20:15:52;;;;;;;;;;;9.40;99.90;;;;;;5073914;28;19908;-89
2020/12/21 20:18:27;;;;;;;;;;;9.50;99.90;;;;;;5076320;28;20439;-90
2020/12/21 20:21:19;;;;;;;;;;;9.60;99.90;;;;;;5092713;28;20296;-90
2020/12/21 20:23:56;;;;;;;;;;;9.60;99.90;;;;;;5073308;28;19974;-90
2020/12/21 20:26:33;;;;;;;;;;;9.60;99.90;;;;;;5060615;28;19912;-91
2020/12/21 20:29:04;;;;;;;;;;;9.60;99.90;;;;;;5109910;27;19915;-90
2020/12/21 20:31:37;;;;;;;;;;;9.70;99.90;;;;;;5118338;27;19935;-91
2020/12/21 20:34:23;;;;;;;;;;;9.70;99.90;;;;;;5112665;28;19915;-91
2020/12/21 20:37:01;;;;;;;;;;;9.70;99.90;;;;;;5113878;28;19908;-92
2020/12/21 20:39:49;;;;;;;;;;;9.80;99.90;;;;;;5017011;28;19917;-92
2020/12/21 20:42:20;;;;;;;;;;;9.80;99.90;;;;;;5016806;28;19913;-91
2020/12/21 20:44:54;;;;;;;;;;;9.80;99.90;;;;;;5032901;28;19913;-94
2020/12/21 20:47:35;;;;;;;;;;;9.90;99.90;;;;;;5033702;28;19915;-92
2020/12/21 20:50:10;;;;;;;;;;;9.90;99.90;;;;;;5016651;28;19909;-93
2020/12/21 20:53:03;;;;;;;;;;;9.90;99.90;;;;;;4997086;28;19957;-92
2020/12/21 20:55:35;;;;;;;;;;;9.90;99.90;;;;;;4996982;28;19965;-92
2020/12/21 20:58:19;;;;;;;;;;;9.90;99.90;;;;;;4996672;28;19913;-92
2020/12/21 21:00:47;;;;;;;;;;;10.00;99.90;;;;;;5010773;28;19921;-90
2020/12/21 21:03:15;;;;;;;;;;;10.00;99.90;;;;;;5028856;28;19916;-91
2020/12/21 21:06:06;;;;;;;;;;;10.00;99.90;;;;;;5089295;28;19908;-89
2020/12/21 21:08:41;;;;;;;;;;;10.00;99.90;;;;;;5096600;28;19915;-91
2020/12/21 21:11:39;;;;;;;;;;;10.00;99.90;;;;;;5074596;28;19908;-91
2020/12/21 21:14:46;;;;;;;;;;;10.00;99.90;;;;;;5091468;28;19908;-91
2020/12/21 21:17:12;;;;;;;;;;;10.00;99.90;;;;;;5075763;28;19915;-90
2020/12/21 21:19:43;;;;;;;;;;;10.00;99.90;;;;;;5073664;28;19916;-91
2020/12/21 21:22:17;;;;;;;;;;;10.10;99.90;;;;;;5078649;28;19937;-90
2020/12/21 21:24:54;;;;;;;;;;;10.10;99.90;;;;;;5133879;27;19945;-91
2020/12/21 21:27:32;;;;;;;;;;;10.10;99.90;;;;;;5139034;27;19908;-90
2020/12/21 21:29:57;;;;;;;;;;;10.20;99.90;;;;;;5138935;27;19915;-91
2020/12/21 21:32:45;;;;;;;;;;;;;;;;;;;;;
2020/12/21 21:35:22;;;;;;;;;;;10.20;99.90;;;;;;5119764;27;19958;-92
2020/12/21 21:37:49;;;;;;;;;;;10.30;99.90;;;;;;5119052;28;19908;-91
2020/12/21 21:40:15;;;;;;;;;;;10.30;99.90;;;;;;5117940;28;19915;-92
2020/12/21 21:42:46;;;;;;;;;;;10.40;99.90;;;;;;5019994;28;19916;-92
2020/12/21 21:45:21;;;;;;;;;;;10.40;99.90;;;;;;5017934;28;19909;-93
2020/12/21 21:48:04;;;;;;;;;;;10.50;99.90;;;;;;5059987;28;19919;-92
2020/12/21 21:50:39;;;;;;;;;;;10.60;99.90;;;;;;5054570;28;19940;-91
2020/12/21 21:53:08;;;;;;;;;;;10.60;99.90;;;;;;5059267;28;19979;-93
2020/12/21 21:55:40;;;;;;;;;;;10.60;99.90;;;;;;5072103;28;19913;-91
2020/12/21 21:58:25;;;;;;;;;;;10.70;99.90;;;;;;5075755;28;19909;-93
2020/12/21 22:00:54;;;;;;;;;;;10.70;99.90;;;;;;5059016;28;19915;-92
2020/12/21 22:03:29;;;;;;;;;;;10.80;99.90;;;;;;5035981;28;19910;-92
2020/12/21 22:06:12;;;;;;;;;;;10.80;99.90;;;;;;5016751;28;19913;-92
2020/12/21 22:08:41;;;;;;;;;;;10.90;99.90;;;;;;4997676;28;19917;-92
2020/12/21 22:11:09;;;;;;;;;;;10.90;99.90;;;;;;4995363;28;19932;-93
2020/12/21 22:13:36;;;;;;;;;;;11.00;99.90;;;;;;4999771;28;19909;-92
2020/12/21 22:16:09;;;;;;;;;;;11.00;99.90;;;;;;4999386;28;19960;-93
2020/12/21 22:18:41;;;;;;;;;;;11.00;99.90;;;;;;5016369;28;19975;-93
2020/12/21 22:21:14;;;;;;;;;;;11.00;99.90;;;;;;5017705;28;19909;-91
2020/12/21 22:23:52;;;;;;;;;;;11.00;99.90;;;;;;5049894;28;19921;-93
2020/12/21 22:26:35;;;;;;;;;;;;;;;;;;;;;
2020/12/21 22:29:03;;;;;;;;;;;11.10;99.90;;;;;;5056255;28;19909;-93
2020/12/21 22:31:31;;;;;;;;;;;11.10;99.90;;;;;;5053425;28;19913;-92
2020/12/21 22:34:00;;;;;;;;;;;11.20;99.90;;;;;;5069358;28;20353;-93
2020/12/21 22:36:32;;;;;;;;;;;11.20;99.90;;;;;;5108925;27;20347;-92
2020/12/21 22:39:06;;;;;;;;;;;11.20;99.90;;;;;;5120216;27;20264;-93
2020/12/21 22:41:34;;;;;;;;;;;11.20;99.90;;;;;;5120373;27;20368;-93
2020/12/21 22:44:26;;;;;;;;;;;11.30;99.90;;;;;;5138222;27;19907;-92
2020/12/21 22:47:02;;;;;;;;;;;11.30;99.90;;;;;;5120392;27;19951;-92
2020/12/21 22:49:31;;;;;;;;;;;11.30;99.90;;;;;;5119946;27;19908;-92
2020/12/21 22:52:10;;;;;;;;;;;11.40;99.90;;;;;;5139297;27;19908;-93
2020/12/21 22:54:41;;;;;;;;;;;11.40;99.90;;;;;;5139840;27;20379;-92
2020/12/21 22:57:15;;;;;;;;;;;11.40;99.90;;;;;;5137792;27;19914;-93
2020/12/21 22:59:43;;;;;;;;;;;11.40;99.90;;;;;;5121555;27;19919;-90
2020/12/21 23:02:13;;;;;;;;;;;11.40;99.90;;;;;;5138956;27;19908;-91
2020/12/21 23:04:47;;;;;;;;;;;11.50;99.90;;;;;;5120060;27;19908;-91
2020/12/21 23:07:14;;;;;;;;;;;11.50;99.90;;;;;;5138072;27;20006;-91
2020/12/21 23:09:49;;;;;;;;;;;11.50;99.90;;;;;;5120996;27;19908;-91
2020/12/21 23:12:18;;;;;;;;;;;11.50;99.90;;;;;;5121613;27;19984;-93
2020/12/21 23:15:11;;;;;;;;;;;11.50;99.90;;;;;;5143925;27;20006;-91
2020/12/21 23:17:46;;;;;;;;;;;11.50;99.90;;;;;;5100080;28;19914;-91
2020/12/21 23:20:23;;;;;;;;;;;11.60;99.90;;;;;;5117403;28;20026;-93
2020/12/21 23:22:56;;;;;;;;;;;11.60;99.90;;;;;;5116452;28;19935;-93
2020/12/21 23:25:56;;;;;;;;;;;11.60;99.90;;;;;;5126525;28;20022;-92
2020/12/21 23:28:33;;;;;;;;;;;11.70;99.90;;;;;;5118714;28;19908;-93
2020/12/21 23:31:01;;;;;;;;;;;11.70;99.90;;;;;;5098885;28;19912;-92
2020/12/21 23:33:39;;;;;;;;;;;11.70;99.90;;;;;;5103519;28;19921;-93
2020/12/21 23:36:10;;;;;;;;;;;11.70;99.90;;;;;;5099857;28;19912;-92
2020/12/21 23:38:48;;;;;;;;;;;11.80;99.90;;;;;;5116216;28;19912;-91
2020/12/21 23:41:16;;;;;;;;;;;11.80;99.90;;;;;;5100208;28;19947;-92
2020/12/21 23:43:51;;;;;;;;;;;11.80;99.90;;;;;;5099610;28;20296;-92
2020/12/21 23:46:35;;;;;;;;;;;11.80;99.90;;;;;;5114067;28;21547;-92
2020/12/21 23:49:07;;;;;;;;;;;11.90;99.90;;;;;;5109085;28;19930;-93
2020/12/21 23:51:34;;;;;;;;;;;11.90;99.90;;;;;;5115820;28;19953;-94
2020/12/21 23:54:04;;;;;;;;;;;11.90;99.90;;;;;;5119950;28;19942;-92
2020/12/21 23:56:33;;;;;;;;;;;12.00;99.90;;;;;;5116126;28;19930;-91
2020/12/21 23:59:08;;;;;;;;;;;12.00;99.90;;;;;;5112722;28;19919;-93
